Time;durP1;ratioP1;P1;durP2;ratioP2;P2;SDS_P1;SDS_P2;PMS_P1;PMS_P2;Temp;Humidity;BMP_temperature;BMP_pressure;BME280_temperature;BME280_humidity;BME280_pressure;Samples;Min_cycle;Max_cycle;Signal;HPM_P1;HPM_P2
2022/08/28 04:02:36;;;;;;;32.17;28.67;;;20.10;99.90;;;;;;4993106;23;20482;-63
2022/08/28 04:05:04;;;;;;;33.13;27.87;;;20.10;99.90;;;;;;4977470;28;20466;-64
2022/08/28 04:07:31;;;;;;;33.20;29.17;;;20.00;99.90;;;;;;4977408;28;20465;-64
2022/08/28 04:09:58;;;;;;;32.70;27.23;;;20.00;99.90;;;;;;4977389;28;20479;-64
2022/08/28 04:12:25;;;;;;;31.90;28.40;;;20.00;99.90;;;;;;4977305;28;20485;-64
2022/08/28 04:14:52;;;;;;;35.40;28.37;;;20.00;99.90;;;;;;4977355;28;20486;-64
2022/08/28 04:17:18;;;;;;;37.87;29.77;;;20.10;99.90;;;;;;4977107;28;20476;-64
2022/08/28 04:19:46;;;;;;;34.13;28.37;;;19.90;99.90;;;;;;4977248;28;20450;-64
2022/08/28 04:22:13;;;;;;;34.43;29.80;;;19.90;99.90;;;;;;4977432;28;20475;-64
2022/08/28 04:24:40;;;;;;;32.17;28.67;;;19.90;99.90;;;;;;4977461;28;20796;-64
2022/08/28 04:27:07;;;;;;;41.13;29.27;;;19.90;99.90;;;;;;4977345;28;20513;-64
2022/08/28 04:29:33;;;;;;;34.33;27.60;;;19.80;99.90;;;;;;4976992;28;20482;-64
2022/08/28 04:32:00;;;;;;;35.37;27.73;;;19.80;99.90;;;;;;4976663;28;21093;-64
2022/08/28 04:34:27;;;;;;;29.70;26.60;;;19.80;99.90;;;;;;4976717;28;20550;-64
2022/08/28 04:36:55;;;;;;;30.67;27.37;;;19.80;99.90;;;;;;4976985;28;20466;-64
2022/08/28 04:39:21;;;;;;;30.40;26.70;;;19.80;99.90;;;;;;4976851;28;20796;-64
2022/08/28 04:41:49;;;;;;;28.30;25.30;;;19.80;99.90;;;;;;4976767;28;20478;-64
2022/08/28 04:44:16;;;;;;;30.50;27.27;;;19.80;99.90;;;;;;4976770;28;20455;-64
2022/08/28 04:46:43;;;;;;;30.23;27.17;;;19.80;99.90;;;;;;4976797;28;20542;-64
2022/08/28 04:49:10;;;;;;;25.20;22.57;;;19.80;99.90;;;;;;4976627;28;20475;-64
2022/08/28 04:51:37;;;;;;;28.97;24.57;;;19.80;99.90;;;;;;4976228;28;20565;-65
2022/08/28 04:54:06;;;;;;;28.73;25.93;;;19.90;99.90;;;;;;4976584;28;20830;-64
2022/08/28 04:56:33;;;;;;;25.77;23.30;;;19.90;99.90;;;;;;4976572;28;20977;-64
2022/08/28 04:59:02;;;;;;;26.43;23.80;;;19.90;99.90;;;;;;4976262;28;20462;-65
2022/08/28 05:01:29;;;;;;;29.07;25.97;;;19.80;99.90;;;;;;4975676;28;20522;-64
2022/08/28 05:03:58;;;;;;;28.23;24.87;;;19.80;99.90;;;;;;4977253;28;20776;-64
2022/08/28 05:06:27;;;;;;;27.40;24.60;;;19.80;99.90;;;;;;4976381;28;20454;-64
2022/08/28 05:08:54;;;;;;;28.70;25.67;;;19.80;99.90;;;;;;4976282;28;20499;-64
2022/08/28 05:11:24;;;;;;;28.70;25.57;;;19.80;99.90;;;;;;4976338;28;20487;-64
2022/08/28 05:13:52;;;;;;;28.13;25.23;;;19.80;99.90;;;;;;4976380;28;20439;-64
2022/08/28 05:16:20;;;;;;;27.93;25.00;;;19.80;99.90;;;;;;4976270;28;20459;-64
2022/08/28 05:18:48;;;;;;;26.77;24.17;;;19.80;99.90;;;;;;4976179;28;20454;-64
2022/08/28 05:21:19;;;;;;;26.50;23.80;;;19.80;99.90;;;;;;4976186;28;20526;-63
2022/08/28 05:23:46;;;;;;;28.23;25.33;;;19.80;99.90;;;;;;4976196;28;20446;-64
2022/08/28 05:26:14;;;;;;;27.33;24.30;;;19.80;99.90;;;;;;4975797;28;20969;-64
2022/08/28 05:28:42;;;;;;;26.47;23.90;;;19.80;99.90;;;;;;4976114;28;20458;-64
2022/08/28 05:31:10;;;;;;;27.80;24.80;;;19.80;99.90;;;;;;4975643;28;20478;-64
2022/08/28 05:33:37;;;;;;;28.27;23.70;;;19.80;99.90;;;;;;4975981;28;20454;-64
2022/08/28 05:36:05;;;;;;;27.37;24.53;;;19.90;99.90;;;;;;4975967;28;20521;-64
2022/08/28 05:38:32;;;;;;;26.20;23.43;;;19.90;99.90;;;;;;4976461;28;20458;-64
2022/08/28 05:40:59;;;;;;;25.67;23.17;;;19.90;99.90;;;;;;4976312;28;20478;-64
2022/08/28 05:43:26;;;;;;;26.60;23.80;;;20.00;99.90;;;;;;4975421;28;20461;-64
2022/08/28 05:45:58;;;;;;;27.30;24.37;;;19.90;99.90;;;;;;4975362;28;20942;-64
2022/08/28 05:48:26;;;;;;;26.40;23.80;;;20.00;99.90;;;;;;4975615;28;20537;-64
2022/08/28 05:50:53;;;;;;;32.43;26.03;;;20.00;99.90;;;;;;4975281;28;20573;-64
2022/08/28 05:53:19;;;;;;;28.43;21.50;;;19.90;99.90;;;;;;4975505;28;20462;-63
2022/08/28 05:55:46;;;;;;;23.70;21.37;;;20.10;99.90;;;;;;4975568;28;20459;-64
2022/08/28 05:58:33;;;;;;;25.60;22.90;;;20.00;99.90;;;;;;4975538;28;20494;-64
2022/08/28 06:01:10;;;;;;;25.30;22.73;;;20.10;99.90;;;;;;4975487;28;20490;-64
2022/08/28 06:03:38;;;;;;;27.27;24.57;;;20.10;99.90;;;;;;4975551;28;20443;-64
2022/08/28 06:06:06;;;;;;;25.83;23.23;;;20.10;99.90;;;;;;4975359;28;20469;-64
2022/08/28 06:08:33;;;;;;;24.80;22.40;;;20.10;99.90;;;;;;4975329;28;20513;-63
2022/08/28 06:11:01;;;;;;;24.27;21.90;;;20.20;99.90;;;;;;4974784;28;20993;-63
2022/08/28 06:13:27;;;;;;;24.07;21.50;;;20.20;99.90;;;;;;4974777;28;20458;-63
2022/08/28 06:15:55;;;;;;;23.63;21.33;;;20.20;99.90;;;;;;4974986;28;20462;-64
2022/08/28 06:18:24;;;;;;;23.90;21.50;;;20.20;99.90;;;;;;4975349;28;20454;-63
2022/08/28 06:20:52;;;;;;;24.00;21.60;;;20.20;99.90;;;;;;4975216;28;20470;-64
2022/08/28 06:23:20;;;;;;;22.13;20.03;;;20.30;99.90;;;;;;4975296;28;20513;-63
2022/08/28 06:25:49;;;;;;;24.80;20.83;;;20.40;99.90;;;;;;4974960;28;20458;-65
2022/08/28 06:28:18;;;;;;;23.07;20.63;;;20.50;99.90;;;;;;4975230;28;20877;-64
2022/08/28 06:30:44;;;;;;;21.03;18.90;;;20.60;99.90;;;;;;4974930;28;20494;-64
2022/08/28 06:33:15;;;;;;;21.57;19.47;;;20.70;99.90;;;;;;4975097;28;20458;-64
2022/08/28 06:35:46;;;;;;;22.80;20.40;;;20.70;99.90;;;;;;4975006;28;20439;-64
2022/08/28 06:38:13;;;;;;;19.27;17.40;;;20.70;99.90;;;;;;4974997;28;20611;-67
2022/08/28 06:40:41;;;;;;;22.33;19.93;;;20.80;99.90;;;;;;4974945;28;20475;-64
2022/08/28 06:43:08;;;;;;;21.80;19.70;;;20.80;99.90;;;;;;4974756;28;20852;-64
2022/08/28 06:45:41;;;;;;;22.67;20.57;;;20.80;99.90;;;;;;4974891;28;20516;-63
2022/08/28 06:48:09;;;;;;;20.63;18.63;;;20.70;99.90;;;;;;4975000;28;20474;-65
2022/08/28 06:50:39;;;;;;;21.43;19.33;;;20.70;99.90;;;;;;4974741;28;20517;-64
2022/08/28 06:53:09;;;;;;;19.47;17.43;;;20.70;99.90;;;;;;4974837;28;20442;-64
2022/08/28 06:55:36;;;;;;;20.60;18.60;;;20.70;99.90;;;;;;4974842;28;20454;-63
2022/08/28 06:58:02;;;;;;;19.43;17.73;;;20.80;99.90;;;;;;4974883;28;20454;-63
2022/08/28 07:00:29;;;;;;;18.93;17.10;;;20.90;99.90;;;;;;4974499;28;20524;-63
2022/08/28 07:02:56;;;;;;;19.40;17.40;;;21.10;99.90;;;;;;4974774;28;20443;-63
2022/08/28 07:05:23;;;;;;;19.67;17.93;;;21.20;99.90;;;;;;4974648;28;20855;-63
2022/08/28 07:07:50;;;;;;;18.33;16.63;;;21.30;99.90;;;;;;4974581;28;20458;-63
2022/08/28 07:10:19;;;;;;;18.43;16.83;;;21.50;99.90;;;;;;4974405;28;20533;-63
2022/08/28 07:12:45;;;;;;;18.73;16.83;;;21.70;99.90;;;;;;4974588;28;20463;-63
2022/08/28 07:15:12;;;;;;;16.70;15.10;;;21.70;99.90;;;;;;4975019;28;20450;-63
2022/08/28 07:17:39;;;;;;;18.87;17.10;;;21.70;99.90;;;;;;4974969;28;20454;-63
2022/08/28 07:20:06;;;;;;;17.90;16.30;;;21.90;99.90;;;;;;4975119;28;20438;-66
2022/08/28 07:22:33;;;;;;;18.50;13.60;;;22.10;99.90;;;;;;4975184;28;20526;-64
2022/08/28 07:25:00;;;;;;;17.47;15.80;;;22.10;99.90;;;;;;4978344;28;20462;-64
2022/08/28 07:27:28;;;;;;;16.63;15.10;;;22.20;99.90;;;;;;4978516;28;20454;-65
2022/08/28 07:29:55;;;;;;;16.50;14.90;;;22.30;99.90;;;;;;4978354;28;20470;-65
2022/08/28 07:32:21;;;;;;;17.23;15.50;;;22.40;99.90;;;;;;4978223;28;20478;-64
2022/08/28 07:34:49;;;;;;;17.40;15.70;;;22.40;99.90;;;;;;4978329;28;20461;-64
2022/08/28 07:37:16;;;;;;;17.93;16.33;;;22.30;99.90;;;;;;4978403;28;20465;-64
2022/08/28 07:39:43;;;;;;;18.37;16.67;;;22.30;99.90;;;;;;4978859;28;20462;-64
2022/08/28 07:44:47;;;;;;;17.97;16.37;;;22.00;99.90;;;;;;4977929;28;20478;-64
2022/08/28 07:44:58;;;;;;;18.53;16.03;;;22.00;99.90;;;;;;4977622;28;20861;-63
2022/08/28 07:47:29;;;;;;;14.70;13.60;;;22.00;99.90;;;;;;4977716;28;20442;-63
2022/08/28 07:49:58;;;;;;;18.83;16.80;;;22.10;99.90;;;;;;4977784;28;20498;-63
2022/08/28 07:52:26;;;;;;;16.80;15.20;;;22.10;99.90;;;;;;4977722;28;20882;-63
2022/08/28 07:54:52;;;;;;;16.27;14.87;;;22.20;99.90;;;;;;4977809;28;20529;-63
2022/08/28 07:57:20;;;;;;;17.67;15.50;;;22.30;99.90;;;;;;4977668;28;20450;-63
2022/08/28 07:59:46;;;;;;;15.47;14.07;;;22.40;99.90;;;;;;4977660;28;20497;-64
2022/08/28 08:02:15;;;;;;;16.07;14.77;;;22.50;99.90;;;;;;4976224;28;20478;-63
2022/08/28 08:04:42;;;;;;;15.50;14.10;;;22.40;99.90;;;;;;4976316;28;20494;-63
2022/08/28 08:07:08;;;;;;;16.23;14.73;;;22.40;99.90;;;;;;4976826;28;20481;-63
2022/08/28 08:09:38;;;;;;;16.10;14.40;;;22.50;99.90;;;;;;4976208;28;20469;-63
2022/08/28 08:12:06;;;;;;;15.13;13.73;;;22.50;99.90;;;;;;4977133;28;20486;-63
2022/08/28 08:14:32;;;;;;;14.83;13.53;;;22.60;99.90;;;;;;4975809;28;20923;-63
2022/08/28 08:17:02;;;;;;;13.20;12.10;;;22.80;99.90;;;;;;4976260;28;20459;-64
2022/08/28 08:19:30;;;;;;;15.27;13.87;;;23.10;99.90;;;;;;4975978;28;20820;-64
2022/08/28 08:21:57;;;;;;;13.33;12.33;;;23.20;99.90;;;;;;4976446;28;20498;-64
2022/08/28 08:24:27;;;;;;;14.87;13.60;;;23.40;99.90;;;;;;4976664;28;20462;-62
2022/08/28 08:26:57;;;;;;;17.10;15.43;;;23.50;99.90;;;;;;4977302;28;20858;-62
2022/08/28 08:29:24;;;;;;;15.70;14.10;;;23.60;99.90;;;;;;4976251;28;20491;-62
2022/08/28 08:31:56;;;;;;;15.83;14.33;;;23.50;99.90;;;;;;4976421;28;20525;-62
2022/08/28 08:34:24;;;;;;;14.83;13.63;;;23.60;99.90;;;;;;4975313;28;20439;-62
2022/08/28 08:36:53;;;;;;;15.47;14.07;;;23.60;99.90;;;;;;4975957;28;20517;-62
2022/08/28 08:39:19;;;;;;;14.47;13.13;;;23.60;99.90;;;;;;4976281;28;20859;-63
2022/08/28 08:41:50;;;;;;;14.00;12.43;;;23.80;99.90;;;;;;4976203;28;20474;-62
2022/08/28 08:44:24;;;;;;;15.83;14.17;;;23.90;99.90;;;;;;4976680;28;20533;-62
2022/08/28 08:47:01;;;;;;;14.00;12.70;;;24.10;99.90;;;;;;4975797;28;20917;-63
2022/08/28 08:49:34;;;;;;;14.17;12.67;;;24.30;99.90;;;;;;4976741;28;20439;-65
2022/08/28 08:52:39;;;;;;;12.43;11.23;;;24.30;99.90;;;;;;4975668;28;20561;-66
2022/08/28 08:55:33;;;;;;;14.50;12.97;;;24.40;99.90;;;;;;4940701;28;20464;-65
2022/08/28 08:58:04;;;;;;;14.77;13.47;;;24.60;99.90;;;;;;4962050;28;20533;-66
2022/08/28 09:00:34;;;;;;;15.37;13.87;;;24.70;99.90;;;;;;4940459;28;1032221;-66
2022/08/28 09:03:06;;;;;;;14.47;13.27;;;24.80;99.90;;;;;;4976200;28;20882;-66
2022/08/28 09:05:45;;;;;;;13.93;12.53;;;24.70;99.90;;;;;;4976148;28;20915;-66
2022/08/28 09:08:21;;;;;;;14.70;13.40;;;24.90;99.90;;;;;;4976346;28;20445;-66
2022/08/28 09:10:55;;;;;;;15.50;14.13;;;25.00;99.90;;;;;;4976290;28;20490;-63
2022/08/28 09:13:28;;;;;;;15.33;13.90;;;25.20;99.90;;;;;;4976362;28;20803;-64
2022/08/28 09:15:55;;;;;;;17.80;14.67;;;25.10;99.90;;;;;;4975963;28;20443;-64
2022/08/28 09:18:24;;;;;;;15.23;12.67;;;24.70;99.90;;;;;;4976117;28;20459;-64
2022/08/28 09:20:53;;;;;;;12.80;11.57;;;24.80;99.90;;;;;;4975752;28;20930;-63
2022/08/28 09:23:24;;;;;;;14.30;12.80;;;24.90;99.90;;;;;;4976112;28;20981;-63
2022/08/28 09:25:55;;;;;;;13.00;11.90;;;25.00;99.90;;;;;;4976082;28;20461;-63
2022/08/28 09:28:27;;;;;;;13.63;12.40;;;25.20;99.90;;;;;;4976130;28;20445;-63
2022/08/28 09:31:01;;;;;;;13.30;12.20;;;25.20;99.90;;;;;;4975812;28;20490;-63
2022/08/28 09:33:38;;;;;;;13.90;12.70;;;25.30;99.90;;;;;;4975888;28;20442;-64
2022/08/28 09:36:30;;;;;;;12.67;11.63;;;25.20;99.90;;;;;;4975682;28;20443;-63
2022/08/28 09:39:08;;;;;;;12.67;11.47;;;25.20;99.90;;;;;;4976016;28;20534;-65
2022/08/28 09:44:24;;;;;;;14.63;13.27;;;25.20;99.90;;;;;;4975502;28;20434;-63
2022/08/28 09:46:52;;;;;;;14.83;13.47;;;25.20;99.90;;;;;;4975699;28;20486;-63
2022/08/28 09:49:26;;;;;;;12.60;11.50;;;25.20;99.90;;;;;;4975926;28;20454;-62
2022/08/28 09:51:53;;;;;;;15.07;13.57;;;25.30;99.90;;;;;;4975640;28;20490;-62
2022/08/28 09:54:25;;;;;;;13.77;12.67;;;25.20;99.90;;;;;;4975585;28;20454;-62
2022/08/28 09:56:52;;;;;;;13.33;11.90;;;25.20;99.90;;;;;;4975599;28;20439;-62
2022/08/28 09:59:21;;;;;;;13.00;11.70;;;25.40;99.90;;;;;;4975564;28;20455;-62
2022/08/28 10:02:00;;;;;;;12.97;11.90;;;25.80;99.90;;;;;;4975049;28;21067;-62
2022/08/28 10:04:41;;;;;;;11.60;10.70;;;26.10;99.90;;;;;;4975472;28;20847;-62
2022/08/28 10:07:13;;;;;;;16.33;11.87;;;26.00;99.90;;;;;;4975421;28;20446;-62
2022/08/28 10:09:46;;;;;;;13.40;12.10;;;26.20;99.90;;;;;;4975327;28;20442;-62
2022/08/28 10:12:30;;;;;;;12.20;9.20;;;27.00;99.90;;;;;;4974908;28;21000;-62
2022/08/28 10:15:03;;;;;;;10.30;9.50;;;28.30;99.90;;;;;;4974995;28;20906;-62
2022/08/28 10:17:42;;;;;;;10.73;9.93;;;29.80;99.90;;;;;;4975182;28;20435;-62
2022/08/28 10:20:17;;;;;;;12.03;11.03;;;29.70;99.90;;;;;;4975673;28;20447;-62
2022/08/28 10:22:52;;;;;;;11.70;10.57;;;29.50;99.90;;;;;;4977045;28;20441;-63
2022/08/28 10:25:31;;;;;;;13.17;11.53;;;28.80;99.90;;;;;;4977021;28;20545;-62
2022/08/28 10:28:15;;;;;;;10.60;9.70;;;28.40;99.90;;;;;;4974702;28;20910;-62
2022/08/28 10:30:52;;;;;;;11.20;10.37;;;28.00;99.90;;;;;;4974596;28;20978;-62
2022/08/28 10:33:30;;;;;;;12.20;11.07;;;27.60;99.90;;;;;;4975060;28;20446;-62
2022/08/28 10:36:02;;;;;;;11.60;10.60;;;27.20;99.90;;;;;;4974844;28;20439;-62
2022/08/28 10:38:38;;;;;;;10.87;9.80;;;27.30;99.90;;;;;;4974482;28;20902;-63
2022/08/28 10:41:10;;;;;;;10.30;9.50;;;27.90;99.90;;;;;;4974826;28;20462;-62
2022/08/28 10:43:42;;;;;;;9.80;9.00;;;28.40;99.90;;;;;;4974810;28;20530;-62
2022/08/28 10:46:13;;;;;;;21.00;9.10;;;28.30;99.90;;;;;;4974825;28;20526;-62
2022/08/28 10:48:46;;;;;;;10.47;9.57;;;28.20;99.90;;;;;;4974877;28;20442;-62
2022/08/28 10:51:17;;;;;;;9.77;8.90;;;27.90;99.90;;;;;;4974778;28;20510;-63
2022/08/28 10:53:50;;;;;;;10.03;9.13;;;28.00;99.90;;;;;;4975059;28;20443;-63
2022/08/28 10:56:23;;;;;;;9.93;9.07;;;27.80;99.90;;;;;;4974876;28;20443;-62
2022/08/28 10:58:54;;;;;;;11.43;10.40;;;27.30;99.90;;;;;;4976895;28;20447;-62
2022/08/28 11:01:27;;;;;;;9.73;8.77;;;27.20;99.90;;;;;;4978321;28;20482;-63
2022/08/28 11:03:57;;;;;;;11.23;9.93;;;27.20;99.90;;;;;;4978626;28;20450;-63
2022/08/28 11:06:30;;;;;;;10.77;9.80;;;27.00;99.90;;;;;;4978492;28;20457;-62
2022/08/28 11:09:23;;;;;;;10.30;9.50;;;26.90;99.90;;;;;;4978478;28;20443;-62
2022/08/28 11:11:49;;;;;;;9.73;8.93;;;26.80;99.90;;;;;;4977740;28;20518;-62
2022/08/28 11:14:32;;;;;;;12.60;11.30;;;26.70;99.90;;;;;;4978422;28;20554;-62
2022/08/28 11:17:02;;;;;;;10.00;9.20;;;26.60;99.90;;;;;;4976529;28;20454;-62
2022/08/28 11:20:00;;;;;;;10.33;9.53;;;27.00;99.90;;;;;;4978351;28;20447;-62
2022/08/28 11:22:33;;;;;;;10.67;9.50;;;27.50;99.90;;;;;;4973829;28;21000;-62
2022/08/28 11:25:04;;;;;;;11.57;10.67;;;27.70;99.90;;;;;;4978168;28;20438;-62
2022/08/28 11:27:35;;;;;;;11.80;10.70;;;27.60;99.90;;;;;;4978467;28;20442;-63
2022/08/28 11:30:28;;;;;;;9.87;9.07;;;28.10;99.90;;;;;;4978433;28;20438;-63
2022/08/28 11:33:05;;;;;;;9.83;9.10;;;28.60;99.90;;;;;;4978266;28;20474;-62
2022/08/28 11:35:56;;;;;;;8.33;7.60;;;28.70;99.90;;;;;;4978141;28;20940;-62
2022/08/28 11:39:01;;;;;;;9.50;8.80;;;28.60;99.90;;;;;;4978773;28;20439;-63
2022/08/28 11:41:30;;;;;;;8.60;7.83;;;28.60;99.90;;;;;;4978382;28;20528;-62
2022/08/28 11:44:28;;;;;;;12.27;9.10;;;28.30;99.90;;;;;;4977877;28;21183;-63
2022/08/28 11:47:15;;;;;;;9.20;7.90;;;27.80;99.90;;;;;;4978007;28;20462;-62
2022/08/28 11:49:44;;;;;;;9.10;8.47;;;27.70;99.90;;;;;;4978153;28;20857;-62
2022/08/28 11:52:32;;;;;;;8.83;8.10;;;27.20;99.90;;;;;;4978250;28;20486;-62
2022/08/28 11:55:16;;;;;;;8.90;8.10;;;26.80;99.90;;;;;;4977782;28;20448;-62
2022/08/28 11:58:00;;;;;;;8.57;7.57;;;26.80;99.90;;;;;;4977783;28;20903;-62
2022/08/28 12:00:48;;;;;;;9.00;8.10;;;26.70;99.90;;;;;;4977909;28;20454;-61
2022/08/28 12:03:22;;;;;;;9.90;9.03;;;26.90;99.90;;;;;;4977940;28;20435;-62
2022/08/28 12:05:52;;;;;;;9.00;8.30;;;27.30;99.90;;;;;;4977636;28;20503;-62
2022/08/28 12:08:53;;;;;;;8.70;8.10;;;27.90;99.90;;;;;;4977502;28;20486;-62
2022/08/28 12:11:53;;;;;;;10.30;7.27;;;28.30;99.90;;;;;;4972611;28;20489;-62
2022/08/28 12:15:03;;;;;;;9.43;8.50;;;28.00;99.90;;;;;;4977067;28;20463;-62
2022/08/28 12:17:56;;;;;;;8.23;7.60;;;27.70;99.90;;;;;;4977083;28;20482;-62
2022/08/28 12:20:38;;;;;;;8.57;7.10;;;27.50;99.90;;;;;;4962966;28;20459;-62
2022/08/28 12:23:47;;;;;;;9.40;8.50;;;27.40;99.90;;;;;;4977409;28;20431;-62
2022/08/28 12:26:25;;;;;;;8.50;7.80;;;27.30;99.90;;;;;;4977298;28;20798;-63
2022/08/28 12:28:55;;;;;;;8.33;7.17;;;27.80;99.90;;;;;;4977116;28;20842;-63
2022/08/28 12:32:13;;;;;;;10.70;7.70;;;28.10;99.90;;;;;;4976743;28;20890;-62
2022/08/28 12:34:52;;;;;;;8.10;7.37;;;28.30;99.90;;;;;;4977012;28;20439;-62
2022/08/28 12:37:33;;;;;;;7.93;7.20;;;28.50;99.90;;;;;;4977039;28;20449;-63
2022/08/28 12:40:09;;;;;;;9.03;6.83;;;28.60;99.90;;;;;;4976903;28;20443;-62
2022/08/28 12:42:39;;;;;;;7.13;6.40;;;28.60;99.90;;;;;;4976636;28;20997;-63
2022/08/28 12:45:09;;;;;;;8.30;7.50;;;28.80;99.90;;;;;;4976871;28;20449;-63
2022/08/28 12:47:37;;;;;;;7.20;6.60;;;29.10;99.90;;;;;;4976755;28;20459;-63
2022/08/28 12:50:21;;;;;;;7.03;6.47;;;29.30;99.90;;;;;;4976666;28;20455;-63
2022/08/28 12:52:50;;;;;;;7.70;6.90;;;29.40;99.90;;;;;;4976654;28;20467;-62
2022/08/28 12:55:17;;;;;;;7.67;7.17;;;29.30;99.90;;;;;;4976552;28;20454;-63
2022/08/28 12:57:46;;;;;;;8.33;7.43;;;29.00;99.90;;;;;;4976530;28;20481;-63
2022/08/28 13:00:18;;;;;;;6.80;6.27;;;29.00;99.90;;;;;;4976624;28;20561;-62
2022/08/28 13:02:46;;;;;;;7.13;6.53;;;28.90;99.90;;;;;;4976741;28;20427;-62
2022/08/28 13:05:28;;;;;;;7.30;6.80;;;28.70;99.90;;;;;;4976284;28;20549;-62
2022/08/28 13:07:56;;;;;;;7.70;7.07;;;28.50;99.90;;;;;;4976190;28;20438;-63
2022/08/28 13:10:28;;;;;;;7.13;6.53;;;28.70;99.90;;;;;;4976287;28;20482;-62
2022/08/28 13:12:58;;;;;;;7.33;6.63;;;28.60;99.90;;;;;;4976301;28;20467;-62
2022/08/28 13:15:48;;;;;;;6.97;6.37;;;28.80;99.90;;;;;;4976298;28;20443;-62
2022/08/28 13:18:44;;;;;;;6.80;6.27;;;28.90;99.90;;;;;;4976800;28;20450;-62
2022/08/28 13:21:20;;;;;;;6.50;6.00;;;29.10;99.90;;;;;;4976190;28;20479;-63
2022/08/28 13:23:49;;;;;;;7.40;6.37;;;29.30;99.90;;;;;;4975867;28;20445;-63
2022/08/28 13:26:21;;;;;;;6.30;5.83;;;29.50;99.90;;;;;;4976203;28;20450;-63
2022/08/28 13:28:48;;;;;;;6.93;6.43;;;29.40;99.10;;;;;;4976179;28;20446;-62
2022/08/28 13:31:24;;;;;;;6.80;6.30;;;29.30;99.70;;;;;;4977410;28;20471;-62
2022/08/28 13:34:06;;;;;;;7.23;6.63;;;29.20;99.90;;;;;;4977362;28;20434;-62
2022/08/28 13:36:43;;;;;;;6.80;6.33;;;29.20;99.70;;;;;;4975613;28;20910;-62
2022/08/28 13:39:10;;;;;;;7.30;6.17;;;29.30;99.90;;;;;;4975861;28;20439;-62
2022/08/28 13:41:37;;;;;;;7.60;6.90;;;29.30;98.30;;;;;;4975920;28;20482;-62
2022/08/28 13:44:04;;;;;;;7.30;6.20;;;29.30;99.90;;;;;;4975491;28;20942;-62
2022/08/28 13:46:31;;;;;;;6.60;6.00;;;29.40;99.90;;;;;;4975512;28;20852;-62
2022/08/28 13:48:58;;;;;;;6.17;5.67;;;29.60;99.90;;;;;;4975952;28;20455;-62
2022/08/28 13:51:25;;;;;;;6.90;6.20;;;29.40;97.60;;;;;;4975389;28;20482;-62
2022/08/28 13:53:53;;;;;;;6.47;5.87;;;29.20;97.60;;;;;;4975659;28;20473;-62
2022/08/28 13:56:20;;;;;;;8.33;6.23;;;29.20;98.70;;;;;;4975327;28;20945;-62
2022/08/28 13:58:47;;;;;;;6.67;6.23;;;29.20;99.30;;;;;;4975484;28;20457;-62
2022/08/28 14:01:15;;;;;;;7.90;7.00;;;29.10;98.80;;;;;;4975165;28;21008;-63
2022/08/28 14:03:41;;;;;;;7.10;6.60;;;29.00;97.40;;;;;;4975360;28;20450;-62
2022/08/28 14:06:11;;;;;;;7.67;5.90;;;29.00;97.00;;;;;;4975431;28;20810;-62
2022/08/28 14:08:38;;;;;;;7.60;5.50;;;29.10;97.20;;;;;;4975187;28;20635;-62
2022/08/28 14:11:07;;;;;;;6.10;5.70;;;29.20;99.10;;;;;;4975233;28;20474;-63
2022/08/28 14:13:33;;;;;;;6.50;6.00;;;29.30;97.30;;;;;;4975219;28;20478;-62
2022/08/28 14:16:04;;;;;;;6.53;5.80;;;29.10;96.20;;;;;;4975634;28;20454;-62
2022/08/28 14:18:31;;;;;;;6.13;5.63;;;29.20;96.90;;;;;;4975261;28;20439;-62
2022/08/28 14:20:58;;;;;;;6.20;5.80;;;29.20;96.20;;;;;;4975296;28;20479;-63
2022/08/28 14:23:25;;;;;;;5.67;5.17;;;29.30;96.20;;;;;;4975241;28;20844;-63
2022/08/28 14:25:51;;;;;;;6.73;6.13;;;29.00;95.90;;;;;;4975413;28;20462;-63
2022/08/28 14:28:19;;;;;;;6.50;6.00;;;28.80;96.10;;;;;;4974838;28;21053;-63
2022/08/28 14:30:50;;;;;;;7.83;6.10;;;28.70;96.90;;;;;;4975005;28;20555;-63
2022/08/28 14:33:18;;;;;;;6.30;5.80;;;28.60;97.30;;;;;;4974411;28;20846;-63
2022/08/28 14:35:47;;;;;;;5.60;5.20;;;28.70;96.40;;;;;;4975092;28;20549;-63
2022/08/28 14:38:14;;;;;;;6.20;5.70;;;28.80;96.10;;;;;;4975210;28;20461;-63
2022/08/28 14:40:43;;;;;;;6.07;5.57;;;28.80;95.80;;;;;;4974932;28;20475;-63
2022/08/28 14:43:12;;;;;;;6.33;5.70;;;28.60;95.70;;;;;;4975256;28;20455;-63
2022/08/28 14:45:45;;;;;;;6.00;5.50;;;28.40;96.30;;;;;;4975196;28;20458;-65
2022/08/28 14:48:13;;;;;;;10.87;5.97;;;28.20;98.00;;;;;;4974905;28;20458;-64
2022/08/28 14:50:40;;;;;;;6.27;5.77;;;28.10;97.10;;;;;;4974704;28;21004;-64
2022/08/28 14:53:08;;;;;;;6.70;6.30;;;28.10;97.80;;;;;;4974757;28;20486;-65
2022/08/28 14:55:39;;;;;;;6.30;5.90;;;28.20;99.10;;;;;;4974819;28;20557;-65
2022/08/28 14:58:06;;;;;;;7.17;6.57;;;28.20;97.90;;;;;;4975673;28;20438;-65
2022/08/28 15:00:33;;;;;;;6.57;6.10;;;28.30;96.90;;;;;;4974382;28;20458;-64
2022/08/28 15:03:01;;;;;;;6.30;5.60;;;28.50;98.10;;;;;;4974801;28;20451;-64
2022/08/28 15:05:27;;;;;;;6.33;5.93;;;28.60;95.50;;;;;;4975065;28;20451;-64
2022/08/28 15:07:54;;;;;;;5.63;5.10;;;28.50;95.40;;;;;;4974754;28;20458;-65
2022/08/28 15:10:21;;;;;;;5.80;5.30;;;28.60;97.50;;;;;;4974572;28;20964;-66
2022/08/28 15:12:48;;;;;;;6.00;5.37;;;28.60;97.50;;;;;;4974802;28;20474;-66
2022/08/28 15:15:16;;;;;;;6.10;5.63;;;28.60;95.50;;;;;;4974776;28;20459;-64
2022/08/28 15:17:43;;;;;;;6.27;5.67;;;28.60;95.80;;;;;;4974760;28;20458;-64
2022/08/28 15:20:12;;;;;;;6.80;5.53;;;28.50;95.00;;;;;;4974813;28;20490;-64
2022/08/28 15:22:38;;;;;;;5.47;5.07;;;28.40;95.90;;;;;;4974735;28;20470;-65
2022/08/28 15:25:06;;;;;;;5.83;5.33;;;28.50;95.50;;;;;;4974555;28;20526;-64
2022/08/28 15:27:33;;;;;;;7.90;5.57;;;28.40;95.70;;;;;;4974647;28;20450;-64
2022/08/28 15:29:59;;;;;;;5.93;5.43;;;28.20;96.30;;;;;;4974867;28;20450;-65
2022/08/28 15:32:26;;;;;;;5.90;5.50;;;28.20;96.50;;;;;;4974344;28;21000;-65
2022/08/28 15:34:53;;;;;;;5.73;5.30;;;28.10;95.20;;;;;;4974637;28;20464;-65
2022/08/28 15:37:21;;;;;;;5.40;4.93;;;28.00;94.90;;;;;;4974376;28;20953;-65
2022/08/28 15:42:32;;;;;;;5.90;5.40;;;27.90;95.80;;;;;;4974459;28;20454;-64
2022/08/28 15:44:59;;;;;;;5.47;5.07;;;27.80;96.10;;;;;;4976487;28;20461;-65
2022/08/28 15:47:26;;;;;;;6.70;6.30;;;27.90;96.70;;;;;;4978095;28;20462;-65
2022/08/28 15:49:55;;;;;;;6.13;5.53;;;27.90;97.90;;;;;;4977878;28;20462;-65
2022/08/28 15:52:23;;;;;;;5.83;5.33;;;28.00;96.80;;;;;;4977884;28;20486;-66
2022/08/28 15:54:50;;;;;;;5.97;5.47;;;28.00;95.70;;;;;;4977959;28;20557;-64
2022/08/28 15:57:17;;;;;;;7.87;5.50;;;27.80;95.90;;;;;;4977834;28;20455;-64
2022/08/28 15:59:43;;;;;;;7.20;6.53;;;27.80;97.00;;;;;;4977589;28;20443;-64
2022/08/28 16:02:11;;;;;;;5.43;5.03;;;27.80;97.50;;;;;;4977891;28;20493;-64
2022/08/28 16:04:37;;;;;;;6.80;5.57;;;27.70;97.20;;;;;;4977573;28;20942;-64
2022/08/28 16:07:04;;;;;;;5.50;5.10;;;27.50;95.90;;;;;;4977731;28;20454;-64
2022/08/28 16:09:32;;;;;;;5.40;4.90;;;27.30;96.80;;;;;;4978124;28;20489;-64
2022/08/28 16:11:59;;;;;;;6.17;5.57;;;27.20;97.80;;;;;;4978328;28;20896;-64
2022/08/28 16:14:26;;;;;;;6.30;5.90;;;27.10;97.60;;;;;;4977372;28;20478;-64
2022/08/28 16:16:53;;;;;;;5.80;5.40;;;27.00;97.50;;;;;;4977702;28;20447;-64
2022/08/28 16:19:20;;;;;;;5.87;5.33;;;27.00;97.90;;;;;;4977562;28;20439;-63
2022/08/28 16:21:46;;;;;;;9.20;5.67;;;27.00;98.90;;;;;;4977534;28;20478;-63
2022/08/28 16:24:13;;;;;;;5.67;5.27;;;26.90;98.50;;;;;;4977361;28;20446;-64
2022/08/28 16:26:41;;;;;;;7.50;6.83;;;26.90;99.00;;;;;;4977156;28;20866;-64
2022/08/28 16:29:08;;;;;;;5.50;5.10;;;26.90;98.20;;;;;;4977305;28;20446;-64
2022/08/28 16:31:35;;;;;;;5.57;5.17;;;26.90;97.40;;;;;;4977140;28;20525;-64
2022/08/28 16:34:02;;;;;;;5.67;5.27;;;26.80;97.40;;;;;;4977287;28;20478;-63
2022/08/28 16:36:29;;;;;;;7.07;5.03;;;26.80;98.30;;;;;;4977110;28;20517;-64
2022/08/28 16:38:56;;;;;;;6.50;5.90;;;26.70;97.20;;;;;;4976745;28;20458;-64
2022/08/28 16:41:25;;;;;;;6.20;5.60;;;26.60;98.80;;;;;;4979593;28;20574;-64
2022/08/28 16:43:54;;;;;;;6.57;5.30;;;26.50;99.00;;;;;;4979661;28;20447;-64
2022/08/28 16:46:24;;;;;;;5.70;5.20;;;26.50;97.80;;;;;;4979221;28;20821;-64
2022/08/28 16:48:52;;;;;;;5.80;5.37;;;26.50;97.30;;;;;;4977575;28;20458;-64
2022/08/28 16:51:20;;;;;;;6.40;5.00;;;26.40;97.80;;;;;;4976623;28;20569;-64
2022/08/28 16:53:47;;;;;;;7.93;5.57;;;26.30;98.10;;;;;;4976605;28;20478;-64
2022/08/28 16:56:17;;;;;;;6.53;5.77;;;26.30;98.20;;;;;;4976028;28;20450;-64
2022/08/28 16:58:44;;;;;;;5.73;5.27;;;26.30;99.90;;;;;;4976624;28;20539;-64
2022/08/28 17:01:13;;;;;;;7.80;5.80;;;26.30;99.90;;;;;;4976148;28;20487;-64
2022/08/28 17:03:41;;;;;;;6.13;5.63;;;26.30;99.90;;;;;;4976877;28;20462;-65